sensor_id;sensor_type;location;lat;lon;timestamp;temperature;humidity
25092;DHT22;13082;52.374;4.946;2022-12-10T00:01:52;1.10;99.90
25092;DHT22;13082;52.374;4.946;2022-12-10T00:04:18;1.00;99.90
25092;DHT22;13082;52.374;4.946;2022-12-10T00:06:44;1.00;99.90
25092;DHT22;13082;52.374;4.946;2022-12-10T00:09:13;0.90;99.90
25092;DHT22;13082;52.374;4.946;2022-12-10T00:11:40;0.90;99.90
25092;DHT22;13082;52.374;4.946;2022-12-10T00:14:05;0.90;99.90
25092;DHT22;13082;52.374;4.946;2022-12-10T00:16:34;0.90;99.90
25092;DHT22;13082;52.374;4.946;2022-12-10T00:19:00;0.90;99.90
25092;DHT22;13082;52.374;4.946;2022-12-10T00:21:29;0.90;99.90
25092;DHT22;13082;52.374;4.946;2022-12-10T00:23:56;1.00;99.90
25092;DHT22;13082;52.374;4.946;2022-12-10T00:26:27;1.00;99.90
25092;DHT22;13082;52.374;4.946;2022-12-10T00:28:53;0.90;99.90
25092;DHT22;13082;52.374;4.946;2022-12-10T00:31:26;1.00;99.90
25092;DHT22;13082;52.374;4.946;2022-12-10T00:33:54;0.90;99.90
25092;DHT22;13082;52.374;4.946;2022-12-10T00:36:23;0.90;99.90
25092;DHT22;13082;52.374;4.946;2022-12-10T00:38:50;0.80;99.90
25092;DHT22;13082;52.374;4.946;2022-12-10T00:41:17;0.80;99.90
25092;DHT22;13082;52.374;4.946;2022-12-10T00:43:42;0.90;99.90
25092;DHT22;13082;52.374;4.946;2022-12-10T00:46:08;0.90;99.90
25092;DHT22;13082;52.374;4.946;2022-12-10T00:48:34;0.80;99.90
25092;DHT22;13082;52.374;4.946;2022-12-10T00:51:27;0.80;99.90
25092;DHT22;13082;52.374;4.946;2022-12-10T00:53:54;0.70;99.90
25092;DHT22;13082;52.374;4.946;2022-12-10T00:56:26;0.70;99.90
25092;DHT22;13082;52.374;4.946;2022-12-10T00:58:52;0.80;99.90
25092;DHT22;13082;52.374;4.946;2022-12-10T01:03:48;0.70;99.90
25092;DHT22;13082;52.374;4.946;2022-12-10T01:06:15;0.70;99.90
25092;DHT22;13082;52.374;4.946;2022-12-10T01:08:43;0.70;99.90
25092;DHT22;13082;52.374;4.946;2022-12-10T01:11:10;0.70;99.90
25092;DHT22;13082;52.374;4.946;2022-12-10T01:13:36;0.70;99.90
25092;DHT22;13082;52.374;4.946;2022-12-10T01:16:04;0.60;99.90
25092;DHT22;13082;52.374;4.946;2022-12-10T01:18:30;0.60;99.90
25092;DHT22;13082;52.374;4.946;2022-12-10T01:21:01;0.60;99.90
25092;DHT22;13082;52.374;4.946;2022-12-10T01:23:27;0.60;99.90
25092;DHT22;13082;52.374;4.946;2022-12-10T01:25:52;0.60;99.90
25092;DHT22;13082;52.374;4.946;2022-12-10T01:28:18;0.60;99.90
25092;DHT22;13082;52.374;4.946;2022-12-10T01:30:43;0.60;99.90
25092;DHT22;13082;52.374;4.946;2022-12-10T01:33:09;0.70;99.90
25092;DHT22;13082;52.374;4.946;2022-12-10T01:35:38;0.70;99.90
25092;DHT22;13082;52.374;4.946;2022-12-10T01:38:03;0.70;99.90
25092;DHT22;13082;52.374;4.946;2022-12-10T01:40:29;0.60;99.90
25092;DHT22;13082;52.374;4.946;2022-12-10T01:42:55;0.70;99.90
25092;DHT22;13082;52.374;4.946;2022-12-10T01:45:21;0.70;99.90
25092;DHT22;13082;52.374;4.946;2022-12-10T01:47:47;0.70;99.90
25092;DHT22;13082;52.374;4.946;2022-12-10T01:50:13;0.70;99.90
25092;DHT22;13082;52.374;4.946;2022-12-10T01:52:39;0.70;99.90
25092;DHT22;13082;52.374;4.946;2022-12-10T01:55:34;0.80;99.90
25092;DHT22;13082;52.374;4.946;2022-12-10T01:57:53;0.80;99.90
25092;DHT22;13082;52.374;4.946;2022-12-10T02:00:18;0.70;99.90
25092;DHT22;13082;52.374;4.946;2022-12-10T02:02:55;0.70;99.90
25092;DHT22;13082;52.374;4.946;2022-12-10T02:08:24;0.70;99.90
25092;DHT22;13082;52.374;4.946;2022-12-10T02:11:17;0.70;99.90
25092;DHT22;13082;52.374;4.946;2022-12-10T02:13:58;0.80;99.90
25092;DHT22;13082;52.374;4.946;2022-12-10T02:16:39;0.90;99.90
25092;DHT22;13082;52.374;4.946;2022-12-10T02:21:54;0.90;99.90
25092;DHT22;13082;52.374;4.946;2022-12-10T02:24:24;0.90;99.90
25092;DHT22;13082;52.374;4.946;2022-12-10T02:30:03;1.00;99.90
25092;DHT22;13082;52.374;4.946;2022-12-10T02:32:36;1.00;99.90
25092;DHT22;13082;52.374;4.946;2022-12-10T02:35:18;0.90;99.90
25092;DHT22;13082;52.374;4.946;2022-12-10T02:37:56;0.90;99.90
25092;DHT22;13082;52.374;4.946;2022-12-10T02:40:28;1.00;99.90
25092;DHT22;13082;52.374;4.946;2022-12-10T02:42:54;1.00;99.90
25092;DHT22;13082;52.374;4.946;2022-12-10T02:45:22;1.00;99.90
25092;DHT22;13082;52.374;4.946;2022-12-10T02:47:49;1.00;99.90
25092;DHT22;13082;52.374;4.946;2022-12-10T02:50:16;0.90;99.90
25092;DHT22;13082;52.374;4.946;2022-12-10T02:52:43;0.90;99.90
25092;DHT22;13082;52.374;4.946;2022-12-10T02:55:11;0.80;99.90
25092;DHT22;13082;52.374;4.946;2022-12-10T03:00:32;0.90;99.90
25092;DHT22;13082;52.374;4.946;2022-12-10T03:03:22;0.90;99.90
25092;DHT22;13082;52.374;4.946;2022-12-10T03:08:59;0.80;99.90
25092;DHT22;13082;52.374;4.946;2022-12-10T03:11:27;0.80;99.90
25092;DHT22;13082;52.374;4.946;2022-12-10T03:14:02;0.90;99.90
25092;DHT22;13082;52.374;4.946;2022-12-10T03:16:34;0.90;99.90
25092;DHT22;13082;52.374;4.946;2022-12-10T03:19:04;0.80;99.90
25092;DHT22;13082;52.374;4.946;2022-12-10T03:21:33;0.80;99.90
25092;DHT22;13082;52.374;4.946;2022-12-10T03:24:00;0.80;99.90
25092;DHT22;13082;52.374;4.946;2022-12-10T03:26:26;0.70;99.90
25092;DHT22;13082;52.374;4.946;2022-12-10T03:29:00;0.70;99.90
25092;DHT22;13082;52.374;4.946;2022-12-10T03:31:27;0.80;99.90
25092;DHT22;13082;52.374;4.946;2022-12-10T03:33:54;0.70;99.90
25092;DHT22;13082;52.374;4.946;2022-12-10T03:36:20;0.60;99.90
25092;DHT22;13082;52.374;4.946;2022-12-10T03:38:47;0.70;99.90
25092;DHT22;13082;52.374;4.946;2022-12-10T03:41:13;0.70;99.90
25092;DHT22;13082;52.374;4.946;2022-12-10T03:43:56;0.60;99.90
25092;DHT22;13082;52.374;4.946;2022-12-10T03:46:22;0.60;99.90
25092;DHT22;13082;52.374;4.946;2022-12-10T03:48:49;0.70;99.90
25092;DHT22;13082;52.374;4.946;2022-12-10T03:51:14;0.70;99.90
25092;DHT22;13082;52.374;4.946;2022-12-10T03:53:40;0.70;99.90
25092;DHT22;13082;52.374;4.946;2022-12-10T03:56:06;0.50;99.90
25092;DHT22;13082;52.374;4.946;2022-12-10T03:58:31;0.50;99.90
25092;DHT22;13082;52.374;4.946;2022-12-10T04:00:57;0.60;99.90
25092;DHT22;13082;52.374;4.946;2022-12-10T04:03:23;0.60;99.90
25092;DHT22;13082;52.374;4.946;2022-12-10T04:05:48;0.60;99.90
25092;DHT22;13082;52.374;4.946;2022-12-10T04:08:14;0.50;99.90
25092;DHT22;13082;52.374;4.946;2022-12-10T04:10:40;0.50;99.90
25092;DHT22;13082;52.374;4.946;2022-12-10T04:13:06;0.50;99.90
25092;DHT22;13082;52.374;4.946;2022-12-10T04:15:50;0.50;99.90
25092;DHT22;13082;52.374;4.946;2022-12-10T04:18:34;0.40;99.90
25092;DHT22;13082;52.374;4.946;2022-12-10T04:21:00;0.40;99.90
25092;DHT22;13082;52.374;4.946;2022-12-10T04:24:01;0.40;99.90
25092;DHT22;13082;52.374;4.946;2022-12-10T04:26:45;0.40;99.90
25092;DHT22;13082;52.374;4.946;2022-12-10T04:29:24;0.50;99.90
25092;DHT22;13082;52.374;4.946;2022-12-10T04:31:51;0.60;99.90
25092;DHT22;13082;52.374;4.946;2022-12-10T04:34:16;0.50;99.90
25092;DHT22;13082;52.374;4.946;2022-12-10T04:36:42;0.40;99.90
25092;DHT22;13082;52.374;4.946;2022-12-10T04:39:08;0.30;99.90
25092;DHT22;13082;52.374;4.946;2022-12-10T04:41:38;0.30;99.90
25092;DHT22;13082;52.374;4.946;2022-12-10T04:44:04;0.40;99.90
25092;DHT22;13082;52.374;4.946;2022-12-10T04:46:30;0.40;99.90
25092;DHT22;13082;52.374;4.946;2022-12-10T04:48:55;0.40;99.90
25092;DHT22;13082;52.374;4.946;2022-12-10T04:51:21;0.30;99.90
25092;DHT22;13082;52.374;4.946;2022-12-10T04:53:46;0.40;99.90
25092;DHT22;13082;52.374;4.946;2022-12-10T04:56:12;0.40;99.90
25092;DHT22;13082;52.374;4.946;2022-12-10T04:58:38;0.30;99.90
25092;DHT22;13082;52.374;4.946;2022-12-10T05:01:05;0.30;99.90
25092;DHT22;13082;52.374;4.946;2022-12-10T05:03:31;0.30;99.90
25092;DHT22;13082;52.374;4.946;2022-12-10T05:06:17;0.30;99.90
25092;DHT22;13082;52.374;4.946;2022-12-10T05:08:43;0.30;99.90
25092;DHT22;13082;52.374;4.946;2022-12-10T05:11:12;0.30;99.90
25092;DHT22;13082;52.374;4.946;2022-12-10T05:13:38;0.30;99.90
25092;DHT22;13082;52.374;4.946;2022-12-10T05:16:06;0.30;99.90
25092;DHT22;13082;52.374;4.946;2022-12-10T05:18:32;0.30;99.90
25092;DHT22;13082;52.374;4.946;2022-12-10T05:21:02;0.30;99.90
25092;DHT22;13082;52.374;4.946;2022-12-10T05:23:28;0.20;99.90
25092;DHT22;13082;52.374;4.946;2022-12-10T05:28:36;0.10;99.90
25092;DHT22;13082;52.374;4.946;2022-12-10T05:31:03;0.20;99.90
25092;DHT22;13082;52.374;4.946;2022-12-10T05:33:28;0.20;99.90
25092;DHT22;13082;52.374;4.946;2022-12-10T05:36:02;0.20;99.90
25092;DHT22;13082;52.374;4.946;2022-12-10T05:38:30;0.30;99.90
25092;DHT22;13082;52.374;4.946;2022-12-10T05:41:01;0.30;99.90
25092;DHT22;13082;52.374;4.946;2022-12-10T05:43:27;0.30;99.90
25092;DHT22;13082;52.374;4.946;2022-12-10T05:45:52;0.20;99.90
25092;DHT22;13082;52.374;4.946;2022-12-10T05:48:18;0.30;99.90
25092;DHT22;13082;52.374;4.946;2022-12-10T05:50:43;0.20;99.90
25092;DHT22;13082;52.374;4.946;2022-12-10T05:53:09;0.20;99.90
25092;DHT22;13082;52.374;4.946;2022-12-10T05:55:35;0.20;99.90
25092;DHT22;13082;52.374;4.946;2022-12-10T05:58:01;0.20;99.90
25092;DHT22;13082;52.374;4.946;2022-12-10T06:00:29;0.30;99.90
25092;DHT22;13082;52.374;4.946;2022-12-10T06:02:55;0.30;99.90
25092;DHT22;13082;52.374;4.946;2022-12-10T06:05:20;0.30;99.90
25092;DHT22;13082;52.374;4.946;2022-12-10T06:07:46;0.20;99.90
25092;DHT22;13082;52.374;4.946;2022-12-10T06:10:12;0.20;99.90
25092;DHT22;13082;52.374;4.946;2022-12-10T06:12:38;0.20;99.90
25092;DHT22;13082;52.374;4.946;2022-12-10T06:15:04;0.20;99.90
25092;DHT22;13082;52.374;4.946;2022-12-10T06:17:30;0.30;99.90
25092;DHT22;13082;52.374;4.946;2022-12-10T06:19:55;0.30;99.90
25092;DHT22;13082;52.374;4.946;2022-12-10T06:22:21;0.20;99.90
25092;DHT22;13082;52.374;4.946;2022-12-10T06:24:46;0.10;99.90
25092;DHT22;13082;52.374;4.946;2022-12-10T06:27:12;0.10;99.90
25092;DHT22;13082;52.374;4.946;2022-12-10T06:29:38;0.20;99.90
25092;DHT22;13082;52.374;4.946;2022-12-10T06:32:04;0.20;99.90
25092;DHT22;13082;52.374;4.946;2022-12-10T06:34:29;0.20;99.90
25092;DHT22;13082;52.374;4.946;2022-12-10T06:36:55;0.20;99.90
25092;DHT22;13082;52.374;4.946;2022-12-10T06:39:20;0.30;99.90
25092;DHT22;13082;52.374;4.946;2022-12-10T06:41:46;0.30;99.90
25092;DHT22;13082;52.374;4.946;2022-12-10T06:44:12;0.30;99.90
25092;DHT22;13082;52.374;4.946;2022-12-10T06:46:39;0.30;99.90
25092;DHT22;13082;52.374;4.946;2022-12-10T06:49:07;0.30;99.90
25092;DHT22;13082;52.374;4.946;2022-12-10T06:51:33;0.30;99.90
25092;DHT22;13082;52.374;4.946;2022-12-10T06:53:58;0.30;99.90
25092;DHT22;13082;52.374;4.946;2022-12-10T06:56:24;0.20;99.90
25092;DHT22;13082;52.374;4.946;2022-12-10T06:58:50;0.20;99.90
25092;DHT22;13082;52.374;4.946;2022-12-10T07:01:20;0.10;99.90
25092;DHT22;13082;52.374;4.946;2022-12-10T07:03:50;0.10;99.90
25092;DHT22;13082;52.374;4.946;2022-12-10T07:06:16;0.10;99.90
25092;DHT22;13082;52.374;4.946;2022-12-10T07:08:42;0.00;99.90
25092;DHT22;13082;52.374;4.946;2022-12-10T07:11:10;0.10;99.90
25092;DHT22;13082;52.374;4.946;2022-12-10T07:13:37;0.10;99.90
25092;DHT22;13082;52.374;4.946;2022-12-10T07:16:15;0.00;99.90
25092;DHT22;13082;52.374;4.946;2022-12-10T07:18:41;0.10;99.90
25092;DHT22;13082;52.374;4.946;2022-12-10T07:23:40;0.10;99.90
25092;DHT22;13082;52.374;4.946;2022-12-10T07:26:06;0.10;99.90
25092;DHT22;13082;52.374;4.946;2022-12-10T07:28:32;0.10;99.90
25092;DHT22;13082;52.374;4.946;2022-12-10T07:31:02;0.10;99.90
25092;DHT22;13082;52.374;4.946;2022-12-10T07:33:28;0.10;99.90
25092;DHT22;13082;52.374;4.946;2022-12-10T07:35:54;0.10;99.90
25092;DHT22;13082;52.374;4.946;2022-12-10T07:38:19;0.10;99.90
25092;DHT22;13082;52.374;4.946;2022-12-10T07:40:45;0.10;99.90
25092;DHT22;13082;52.374;4.946;2022-12-10T07:43:10;0.10;99.90
25092;DHT22;13082;52.374;4.946;2022-12-10T07:45:36;0.10;99.90
25092;DHT22;13082;52.374;4.946;2022-12-10T07:48:02;0.10;99.90
25092;DHT22;13082;52.374;4.946;2022-12-10T07:50:28;0.10;99.90
25092;DHT22;13082;52.374;4.946;2022-12-10T07:52:53;0.20;99.90
25092;DHT22;13082;52.374;4.946;2022-12-10T07:55:19;0.30;99.90
25092;DHT22;13082;52.374;4.946;2022-12-10T07:57:44;0.30;99.90
25092;DHT22;13082;52.374;4.946;2022-12-10T08:00:10;0.40;99.90
25092;DHT22;13082;52.374;4.946;2022-12-10T08:02:36;0.40;99.90
25092;DHT22;13082;52.374;4.946;2022-12-10T08:05:02;0.40;99.90
25092;DHT22;13082;52.374;4.946;2022-12-10T08:07:27;0.30;99.90
25092;DHT22;13082;52.374;4.946;2022-12-10T08:09:53;0.10;99.90
25092;DHT22;13082;52.374;4.946;2022-12-10T08:12:18;0.10;99.90
25092;DHT22;13082;52.374;4.946;2022-12-10T08:14:44;0.20;99.90
25092;DHT22;13082;52.374;4.946;2022-12-10T08:17:09;0.20;99.90
25092;DHT22;13082;52.374;4.946;2022-12-10T08:19:35;0.20;99.90
25092;DHT22;13082;52.374;4.946;2022-12-10T08:22:01;0.20;99.90
25092;DHT22;13082;52.374;4.946;2022-12-10T08:24:26;0.20;99.90
25092;DHT22;13082;52.374;4.946;2022-12-10T08:26:52;0.10;99.90
25092;DHT22;13082;52.374;4.946;2022-12-10T08:29:17;0.10;99.90
25092;DHT22;13082;52.374;4.946;2022-12-10T08:31:43;0.10;99.90
25092;DHT22;13082;52.374;4.946;2022-12-10T08:34:14;0.20;99.90
25092;DHT22;13082;52.374;4.946;2022-12-10T08:36:40;0.20;99.90
25092;DHT22;13082;52.374;4.946;2022-12-10T08:39:05;0.30;99.90
25092;DHT22;13082;52.374;4.946;2022-12-10T08:41:31;0.20;99.90
25092;DHT22;13082;52.374;4.946;2022-12-10T08:43:57;0.20;99.90
25092;DHT22;13082;52.374;4.946;2022-12-10T08:46:22;0.20;99.90
25092;DHT22;13082;52.374;4.946;2022-12-10T08:48:51;0.20;99.90
25092;DHT22;13082;52.374;4.946;2022-12-10T08:51:17;0.20;99.90
25092;DHT22;13082;52.374;4.946;2022-12-10T08:53:43;0.20;99.90
25092;DHT22;13082;52.374;4.946;2022-12-10T08:56:09;0.20;99.90
25092;DHT22;13082;52.374;4.946;2022-12-10T08:58:37;0.20;99.90
25092;DHT22;13082;52.374;4.946;2022-12-10T09:01:12;0.20;99.90
25092;DHT22;13082;52.374;4.946;2022-12-10T09:03:38;0.30;99.90
25092;DHT22;13082;52.374;4.946;2022-12-10T09:06:06;0.30;99.90
25092;DHT22;13082;52.374;4.946;2022-12-10T09:08:32;0.40;99.90
25092;DHT22;13082;52.374;4.946;2022-12-10T09:11:03;0.40;99.90
25092;DHT22;13082;52.374;4.946;2022-12-10T09:13:29;0.40;99.90
25092;DHT22;13082;52.374;4.946;2022-12-10T09:15:54;0.40;99.90
25092;DHT22;13082;52.374;4.946;2022-12-10T09:18:20;0.40;99.90
25092;DHT22;13082;52.374;4.946;2022-12-10T09:20:45;0.40;99.90
25092;DHT22;13082;52.374;4.946;2022-12-10T09:23:11;0.20;99.90
25092;DHT22;13082;52.374;4.946;2022-12-10T09:25:37;0.20;99.90
25092;DHT22;13082;52.374;4.946;2022-12-10T09:28:02;0.30;99.90
25092;DHT22;13082;52.374;4.946;2022-12-10T09:30:28;0.40;99.90
25092;DHT22;13082;52.374;4.946;2022-12-10T09:32:53;0.40;99.90
25092;DHT22;13082;52.374;4.946;2022-12-10T09:35:19;0.40;99.90
25092;DHT22;13082;52.374;4.946;2022-12-10T09:37:45;0.40;99.90
25092;DHT22;13082;52.374;4.946;2022-12-10T09:40:16;0.30;99.90
25092;DHT22;13082;52.374;4.946;2022-12-10T09:42:45;0.30;99.90
25092;DHT22;13082;52.374;4.946;2022-12-10T09:45:32;0.20;99.90
25092;DHT22;13082;52.374;4.946;2022-12-10T09:48:01;0.30;99.90
25092;DHT22;13082;52.374;4.946;2022-12-10T09:51:03;0.30;99.90
25092;DHT22;13082;52.374;4.946;2022-12-10T09:53:31;0.30;99.90
25092;DHT22;13082;52.374;4.946;2022-12-10T09:55:58;0.20;99.90
25092;DHT22;13082;52.374;4.946;2022-12-10T09:58:26;0.20;99.90
25092;DHT22;13082;52.374;4.946;2022-12-10T10:00:57;0.20;99.90
25092;DHT22;13082;52.374;4.946;2022-12-10T10:03:23;0.20;99.90
25092;DHT22;13082;52.374;4.946;2022-12-10T10:05:50;0.20;99.90
25092;DHT22;13082;52.374;4.946;2022-12-10T10:08:27;0.30;99.90
25092;DHT22;13082;52.374;4.946;2022-12-10T10:10:54;0.20;99.90
25092;DHT22;13082;52.374;4.946;2022-12-10T10:15:53;0.50;99.90
25092;DHT22;13082;52.374;4.946;2022-12-10T10:18:41;0.40;99.90
25092;DHT22;13082;52.374;4.946;2022-12-10T10:21:45;0.40;99.90
25092;DHT22;13082;52.374;4.946;2022-12-10T10:24:17;0.30;99.90
25092;DHT22;13082;52.374;4.946;2022-12-10T10:26:44;0.30;99.90
25092;DHT22;13082;52.374;4.946;2022-12-10T10:29:13;0.30;99.90
25092;DHT22;13082;52.374;4.946;2022-12-10T10:31:41;0.30;99.90
25092;DHT22;13082;52.374;4.946;2022-12-10T10:34:19;0.30;99.90
25092;DHT22;13082;52.374;4.946;2022-12-10T10:36:46;0.30;99.90
25092;DHT22;13082;52.374;4.946;2022-12-10T10:41:52;0.30;99.90
25092;DHT22;13082;52.374;4.946;2022-12-10T10:44:20;0.20;99.90
25092;DHT22;13082;52.374;4.946;2022-12-10T10:46:49;0.30;99.90
25092;DHT22;13082;52.374;4.946;2022-12-10T10:51:47;0.30;99.90
25092;DHT22;13082;52.374;4.946;2022-12-10T10:57:04;0.30;99.90
25092;DHT22;13082;52.374;4.946;2022-12-10T10:59:35;0.30;99.90
25092;DHT22;13082;52.374;4.946;2022-12-10T11:02:21;0.30;99.90
25092;DHT22;13082;52.374;4.946;2022-12-10T11:04:50;0.40;99.90
25092;DHT22;13082;52.374;4.946;2022-12-10T11:07:35;0.30;99.90
25092;DHT22;13082;52.374;4.946;2022-12-10T11:10:22;0.30;99.90
25092;DHT22;13082;52.374;4.946;2022-12-10T11:15:39;0.50;99.90
25092;DHT22;13082;52.374;4.946;2022-12-10T11:23:40;0.50;99.90
25092;DHT22;13082;52.374;4.946;2022-12-10T11:29:11;0.40;99.90
25092;DHT22;13082;52.374;4.946;2022-12-10T11:34:34;0.50;99.90
25092;DHT22;13082;52.374;4.946;2022-12-10T11:37:17;0.50;99.90
25092;DHT22;13082;52.374;4.946;2022-12-10T11:43:01;0.40;99.90
25092;DHT22;13082;52.374;4.946;2022-12-10T11:54:40;0.40;99.90
25092;DHT22;13082;52.374;4.946;2022-12-10T11:57:30;0.50;99.90
25092;DHT22;13082;52.374;4.946;2022-12-10T12:00:20;0.50;99.90
25092;DHT22;13082;52.374;4.946;2022-12-10T12:11:54;0.50;99.90
25092;DHT22;13082;52.374;4.946;2022-12-10T12:14:08;0.50;99.90
25092;DHT22;13082;52.374;4.946;2022-12-10T12:16:47;0.30;99.90
25092;DHT22;13082;52.374;4.946;2022-12-10T12:19:19;0.40;99.90
25092;DHT22;13082;52.374;4.946;2022-12-10T12:21:49;0.50;99.90
25092;DHT22;13082;52.374;4.946;2022-12-10T12:24:22;0.60;99.90
25092;DHT22;13082;52.374;4.946;2022-12-10T12:27:05;0.60;99.90
25092;DHT22;13082;52.374;4.946;2022-12-10T12:29:47;0.40;99.90
25092;DHT22;13082;52.374;4.946;2022-12-10T12:32:40;0.40;99.90
25092;DHT22;13082;52.374;4.946;2022-12-10T12:35:39;0.40;99.90
25092;DHT22;13082;52.374;4.946;2022-12-10T12:38:31;0.40;99.90
25092;DHT22;13082;52.374;4.946;2022-12-10T12:41:21;0.40;99.90
25092;DHT22;13082;52.374;4.946;2022-12-10T12:46:56;0.40;99.90
25092;DHT22;13082;52.374;4.946;2022-12-10T12:49:30;0.40;99.90
25092;DHT22;13082;52.374;4.946;2022-12-10T12:54:28;0.50;99.90
25092;DHT22;13082;52.374;4.946;2022-12-10T12:57:14;0.50;99.90
25092;DHT22;13082;52.374;4.946;2022-12-10T13:00:05;0.50;99.90
25092;DHT22;13082;52.374;4.946;2022-12-10T13:03:00;0.50;99.90
25092;DHT22;13082;52.374;4.946;2022-12-10T13:05:35;0.50;99.90
25092;DHT22;13082;52.374;4.946;2022-12-10T13:13:36;0.50;99.90
25092;DHT22;13082;52.374;4.946;2022-12-10T13:40:41;0.50;99.90
25092;DHT22;13082;52.374;4.946;2022-12-10T13:43:36;0.50;99.90
25092;DHT22;13082;52.374;4.946;2022-12-10T13:48:57;0.30;99.90
25092;DHT22;13082;52.374;4.946;2022-12-10T13:51:58;0.40;99.90
25092;DHT22;13082;52.374;4.946;2022-12-10T13:57:25;0.40;99.90
25092;DHT22;13082;52.374;4.946;2022-12-10T14:00:09;0.40;99.90
25092;DHT22;13082;52.374;4.946;2022-12-10T14:03:16;0.40;99.90
25092;DHT22;13082;52.374;4.946;2022-12-10T14:08:37;0.50;99.90
25092;DHT22;13082;52.374;4.946;2022-12-10T14:11:06;0.50;99.90
25092;DHT22;13082;52.374;4.946;2022-12-10T14:13:42;0.50;99.90
25092;DHT22;13082;52.374;4.946;2022-12-10T14:16:11;0.50;99.90
25092;DHT22;13082;52.374;4.946;2022-12-10T14:18:42;0.60;99.90
25092;DHT22;13082;52.374;4.946;2022-12-10T14:21:10;0.70;99.90
25092;DHT22;13082;52.374;4.946;2022-12-10T14:23:44;0.70;99.90
25092;DHT22;13082;52.374;4.946;2022-12-10T14:26:20;0.60;99.90
25092;DHT22;13082;52.374;4.946;2022-12-10T14:31:34;0.70;99.90
25092;DHT22;13082;52.374;4.946;2022-12-10T14:34:04;0.70;99.90
25092;DHT22;13082;52.374;4.946;2022-12-10T14:36:45;0.70;99.90
25092;DHT22;13082;52.374;4.946;2022-12-10T14:39:32;0.80;99.90
25092;DHT22;13082;52.374;4.946;2022-12-10T14:42:02;0.80;99.90
25092;DHT22;13082;52.374;4.946;2022-12-10T14:44:29;0.80;99.90
25092;DHT22;13082;52.374;4.946;2022-12-10T14:47:17;0.80;99.90
25092;DHT22;13082;52.374;4.946;2022-12-10T14:49:49;0.80;99.90
25092;DHT22;13082;52.374;4.946;2022-12-10T14:52:20;0.80;99.90
25092;DHT22;13082;52.374;4.946;2022-12-10T14:54:46;0.90;99.90
25092;DHT22;13082;52.374;4.946;2022-12-10T14:57:30;0.80;99.90
25092;DHT22;13082;52.374;4.946;2022-12-10T15:00:15;0.80;99.90
25092;DHT22;13082;52.374;4.946;2022-12-10T15:02:48;0.90;99.90
25092;DHT22;13082;52.374;4.946;2022-12-10T15:05:20;0.90;99.90
25092;DHT22;13082;52.374;4.946;2022-12-10T15:08:07;0.90;99.90
25092;DHT22;13082;52.374;4.946;2022-12-10T15:10:48;0.90;99.90
25092;DHT22;13082;52.374;4.946;2022-12-10T15:15:58;0.90;99.90
25092;DHT22;13082;52.374;4.946;2022-12-10T15:18:36;0.90;99.90
25092;DHT22;13082;52.374;4.946;2022-12-10T15:23:34;0.90;99.90
25092;DHT22;13082;52.374;4.946;2022-12-10T15:26:04;0.90;99.90
25092;DHT22;13082;52.374;4.946;2022-12-10T15:28:38;1.00;99.90
25092;DHT22;13082;52.374;4.946;2022-12-10T15:33:54;1.00;99.90
25092;DHT22;13082;52.374;4.946;2022-12-10T15:39:04;1.10;99.90
25092;DHT22;13082;52.374;4.946;2022-12-10T15:41:41;1.10;99.90
25092;DHT22;13082;52.374;4.946;2022-12-10T15:47:17;1.10;99.90
25092;DHT22;13082;52.374;4.946;2022-12-10T15:49:44;1.10;99.90
25092;DHT22;13082;52.374;4.946;2022-12-10T15:52:23;1.10;99.90
25092;DHT22;13082;52.374;4.946;2022-12-10T15:54:51;1.10;99.90
25092;DHT22;13082;52.374;4.946;2022-12-10T15:57:22;1.10;99.90
25092;DHT22;13082;52.374;4.946;2022-12-10T15:59:59;1.10;99.90
25092;DHT22;13082;52.374;4.946;2022-12-10T16:05:19;1.10;99.90
25092;DHT22;13082;52.374;4.946;2022-12-10T16:07:46;1.10;99.90
25092;DHT22;13082;52.374;4.946;2022-12-10T16:10:14;1.10;99.90
25092;DHT22;13082;52.374;4.946;2022-12-10T16:12:41;1.10;99.90
25092;DHT22;13082;52.374;4.946;2022-12-10T16:15:10;1.20;99.90
25092;DHT22;13082;52.374;4.946;2022-12-10T16:17:37;1.20;99.90
25092;DHT22;13082;52.374;4.946;2022-12-10T16:20:19;1.20;99.90
25092;DHT22;13082;52.374;4.946;2022-12-10T16:22:46;1.10;99.90
25092;DHT22;13082;52.374;4.946;2022-12-10T16:25:12;1.00;99.90
25092;DHT22;13082;52.374;4.946;2022-12-10T16:27:38;1.10;99.90
25092;DHT22;13082;52.374;4.946;2022-12-10T16:30:17;1.10;99.90
25092;DHT22;13082;52.374;4.946;2022-12-10T16:32:43;1.20;99.90
25092;DHT22;13082;52.374;4.946;2022-12-10T16:35:08;1.20;99.90
25092;DHT22;13082;52.374;4.946;2022-12-10T16:37:34;1.20;99.90
25092;DHT22;13082;52.374;4.946;2022-12-10T16:40:00;1.20;99.90
25092;DHT22;13082;52.374;4.946;2022-12-10T16:42:26;1.10;99.90
25092;DHT22;13082;52.374;4.946;2022-12-10T16:44:52;1.10;99.90
25092;DHT22;13082;52.374;4.946;2022-12-10T16:47:17;1.10;99.90
25092;DHT22;13082;52.374;4.946;2022-12-10T16:49:43;1.10;99.90
25092;DHT22;13082;52.374;4.946;2022-12-10T16:52:13;1.20;99.90
25092;DHT22;13082;52.374;4.946;2022-12-10T16:54:39;1.20;99.90
25092;DHT22;13082;52.374;4.946;2022-12-10T16:57:11;1.30;99.90
25092;DHT22;13082;52.374;4.946;2022-12-10T16:59:37;1.30;99.90
25092;DHT22;13082;52.374;4.946;2022-12-10T17:02:11;1.30;99.90
25092;DHT22;13082;52.374;4.946;2022-12-10T17:04:37;1.30;99.90
25092;DHT22;13082;52.374;4.946;2022-12-10T17:07:03;1.20;99.90
25092;DHT22;13082;52.374;4.946;2022-12-10T17:09:29;1.20;99.90
25092;DHT22;13082;52.374;4.946;2022-12-10T17:11:54;1.30;99.90
25092;DHT22;13082;52.374;4.946;2022-12-10T17:14:26;1.30;99.90
25092;DHT22;13082;52.374;4.946;2022-12-10T17:16:54;1.30;99.90
25092;DHT22;13082;52.374;4.946;2022-12-10T17:19:23;1.30;99.90
25092;DHT22;13082;52.374;4.946;2022-12-10T17:21:48;1.30;99.90
25092;DHT22;13082;52.374;4.946;2022-12-10T17:24:14;1.30;99.90
25092;DHT22;13082;52.374;4.946;2022-12-10T17:26:47;1.20;99.90
25092;DHT22;13082;52.374;4.946;2022-12-10T17:29:27;1.30;99.90
25092;DHT22;13082;52.374;4.946;2022-12-10T17:31:54;1.30;99.90
25092;DHT22;13082;52.374;4.946;2022-12-10T17:34:20;1.30;99.90
25092;DHT22;13082;52.374;4.946;2022-12-10T17:36:49;1.30;99.90
25092;DHT22;13082;52.374;4.946;2022-12-10T17:39:17;1.30;99.90
25092;DHT22;13082;52.374;4.946;2022-12-10T17:41:43;1.30;99.90
25092;DHT22;13082;52.374;4.946;2022-12-10T17:44:08;1.30;99.90
25092;DHT22;13082;52.374;4.946;2022-12-10T17:46:34;1.30;99.90
25092;DHT22;13082;52.374;4.946;2022-12-10T17:49:00;1.40;99.90
25092;DHT22;13082;52.374;4.946;2022-12-10T17:51:27;1.40;99.90
25092;DHT22;13082;52.374;4.946;2022-12-10T17:53:53;1.40;99.90
25092;DHT22;13082;52.374;4.946;2022-12-10T17:56:22;1.40;99.90
25092;DHT22;13082;52.374;4.946;2022-12-10T17:58:49;1.40;99.90
25092;DHT22;13082;52.374;4.946;2022-12-10T18:01:16;1.40;99.90
25092;DHT22;13082;52.374;4.946;2022-12-10T18:03:42;1.40;99.90
25092;DHT22;13082;52.374;4.946;2022-12-10T18:08:43;1.50;99.90
25092;DHT22;13082;52.374;4.946;2022-12-10T18:11:15;1.50;99.90
25092;DHT22;13082;52.374;4.946;2022-12-10T18:13:41;1.50;99.90
25092;DHT22;13082;52.374;4.946;2022-12-10T18:16:16;1.50;99.90
25092;DHT22;13082;52.374;4.946;2022-12-10T18:18:42;1.50;99.90